createdAt,value
2016-11-03T00:00:04.116Z,25.55
2016-11-03T00:00:44.766Z,25.62
2016-11-03T00:01:25.413Z,25.62
2016-11-03T00:02:06.123Z,25.64
2016-11-03T00:02:46.801Z,25.61
2016-11-03T00:03:27.478Z,25.62
2016-11-03T00:04:08.195Z,25.62
2016-11-03T00:04:48.900Z,25.61
2016-11-03T00:05:29.570Z,25.61
2016-11-03T00:06:10.262Z,25.62
2016-11-03T00:06:50.933Z,25.62
2016-11-03T00:07:31.619Z,25.58
2016-11-03T00:08:12.260Z,25.64
2016-11-03T00:08:52.903Z,25.61
2016-11-03T00:09:33.565Z,25.58
2016-11-03T00:10:14.206Z,25.6
2016-11-03T00:10:54.877Z,25.65
2016-11-03T00:11:35.557Z,25.65
2016-11-03T00:12:16.264Z,25.54
2016-11-03T00:12:56.950Z,25.57
2016-11-03T00:13:37.616Z,25.6
2016-11-03T00:14:18.313Z,25.65
2016-11-03T00:14:59.003Z,25.67
2016-11-03T00:15:39.690Z,25.61
2016-11-03T00:16:20.338Z,25.69
2016-11-03T00:17:01.004Z,25.61
2016-11-03T00:17:41.664Z,25.54
2016-11-03T00:18:22.371Z,25.62
2016-11-03T00:19:03.026Z,25.58
2016-11-03T00:19:43.742Z,25.57
2016-11-03T00:20:24.443Z,25.58
2016-11-03T00:21:05.093Z,25.61
2016-11-03T00:21:45.812Z,25.65
2016-11-03T00:22:26.456Z,25.58
2016-11-03T00:23:07.105Z,25.57
2016-11-03T00:23:47.792Z,25.57
2016-11-03T00:24:28.451Z,25.57
2016-11-03T00:25:09.168Z,25.57
2016-11-03T00:25:49.861Z,25.6
2016-11-03T00:26:31.495Z,25.57
2016-11-03T00:27:12.152Z,25.57
2016-11-03T00:27:52.826Z,25.58
2016-11-03T00:28:33.482Z,25.58
2016-11-03T00:29:14.144Z,25.58
2016-11-03T00:29:54.827Z,25.52
2016-11-03T00:30:35.491Z,25.6
2016-11-03T00:31:16.845Z,25.54
2016-11-03T00:31:57.537Z,25.54
2016-11-03T00:32:38.214Z,25.5
2016-11-03T00:33:18.903Z,25.57
2016-11-03T00:33:59.588Z,25.6
2016-11-03T00:34:40.297Z,25.58
2016-11-03T00:35:21.031Z,25.64
2016-11-03T00:36:01.703Z,25.61
2016-11-03T00:36:42.366Z,25.55
2016-11-03T00:37:23.058Z,25.54
2016-11-03T00:38:03.755Z,25.6
2016-11-03T00:38:44.452Z,25.57
2016-11-03T00:39:25.155Z,25.64
2016-11-03T00:40:05.812Z,25.6
2016-11-03T00:40:46.460Z,25.61
2016-11-03T00:41:27.099Z,25.61
2016-11-03T00:42:07.759Z,25.55
2016-11-03T00:42:48.424Z,25.65
2016-11-03T00:43:29.126Z,25.61
2016-11-03T00:44:09.835Z,25.58
2016-11-03T00:44:50.527Z,25.62
2016-11-03T00:45:31.241Z,25.58
2016-11-03T00:46:11.900Z,25.57
2016-11-03T00:46:52.546Z,25.62
2016-11-03T00:47:33.184Z,25.61
2016-11-03T00:48:13.888Z,25.61
2016-11-03T00:48:54.609Z,25.65
2016-11-03T00:49:35.309Z,25.58
2016-11-03T00:50:15.966Z,25.57
2016-11-03T00:50:56.639Z,25.52
2016-11-03T00:51:37.344Z,25.65
2016-11-03T00:52:18.038Z,25.6
2016-11-03T00:52:58.704Z,25.52
2016-11-03T00:53:39.367Z,25.55
2016-11-03T00:54:20.040Z,25.46
2016-11-03T00:55:00.709Z,25.54
2016-11-03T00:55:41.411Z,25.54
2016-11-03T00:56:22.131Z,25.52
2016-11-03T00:57:02.831Z,25.47
2016-11-03T00:57:43.511Z,25.61
2016-11-03T00:58:24.196Z,25.6
2016-11-03T00:59:04.855Z,25.55
2016-11-03T00:59:45.496Z,25.55
2016-11-03T01:00:26.151Z,25.52
2016-11-03T01:01:06.820Z,25.57
2016-11-03T01:01:47.487Z,25.58
2016-11-03T01:02:28.156Z,25.58
2016-11-03T01:03:08.804Z,25.52
2016-11-03T01:03:49.489Z,25.57
2016-11-03T01:04:30.163Z,25.58
2016-11-03T01:05:10.882Z,25.55
2016-11-03T01:05:51.574Z,25.54
2016-11-03T01:06:32.239Z,25.55
2016-11-03T01:07:12.900Z,25.57
2016-11-03T01:07:53.595Z,25.52
2016-11-03T01:08:34.239Z,25.64
2016-11-03T01:09:14.900Z,25.52
2016-11-03T01:09:55.555Z,25.57
2016-11-03T01:10:36.202Z,25.6
2016-11-03T01:11:16.919Z,25.6
2016-11-03T01:11:57.555Z,25.5
2016-11-03T01:12:38.174Z,25.55
2016-11-03T01:13:18.868Z,25.57
2016-11-03T01:13:59.557Z,25.52
2016-11-03T01:14:40.239Z,25.47
2016-11-03T01:15:20.907Z,25.54
2016-11-03T01:16:01.569Z,25.58
2016-11-03T01:16:42.286Z,25.52
2016-11-03T01:17:22.986Z,25.57
2016-11-03T01:18:03.685Z,25.55
2016-11-03T01:18:44.407Z,25.6
2016-11-03T01:19:25.050Z,25.55
2016-11-03T01:20:05.720Z,25.51
2016-11-03T01:20:46.470Z,25.52
2016-11-03T01:21:27.182Z,25.52
2016-11-03T01:22:08.795Z,25.57
2016-11-03T01:22:48.530Z,25.52
2016-11-03T01:23:29.183Z,25.55
2016-11-03T01:24:09.850Z,25.51
2016-11-03T01:24:50.478Z,25.52
2016-11-03T01:25:31.112Z,25.57
2016-11-03T01:26:11.761Z,25.52
2016-11-03T01:26:52.397Z,25.54
2016-11-03T01:27:33.042Z,25.5
2016-11-03T01:28:13.660Z,25.55
2016-11-03T01:28:54.288Z,25.57
2016-11-03T01:29:34.912Z,25.52
2016-11-03T01:30:15.545Z,25.54
2016-11-03T01:30:56.186Z,25.57
2016-11-03T01:31:36.812Z,25.57
2016-11-03T01:32:17.444Z,25.57
2016-11-03T01:32:58.100Z,25.6
2016-11-03T01:33:38.809Z,25.57
2016-11-03T01:34:19.475Z,25.5
2016-11-03T01:35:00.152Z,25.5
2016-11-03T01:35:40.868Z,25.52
2016-11-03T01:36:21.586Z,25.54
2016-11-03T01:37:02.238Z,25.54
2016-11-03T01:37:42.868Z,25.54
2016-11-03T01:38:23.595Z,25.58
2016-11-03T01:39:04.279Z,25.46
2016-11-03T01:39:44.956Z,25.57
2016-11-03T01:40:25.662Z,25.54
2016-11-03T01:41:06.357Z,25.57
2016-11-03T01:41:47.042Z,25.54
2016-11-03T01:42:27.738Z,25.54
2016-11-03T01:43:08.427Z,25.61
2016-11-03T01:43:49.077Z,25.51
2016-11-03T01:44:29.796Z,25.54
2016-11-03T01:45:10.479Z,25.51
2016-11-03T01:45:51.163Z,25.46
2016-11-03T01:46:31.836Z,25.5
2016-11-03T01:47:12.524Z,25.51
2016-11-03T01:47:53.217Z,25.6
2016-11-03T01:48:33.916Z,25.5
2016-11-03T01:49:14.655Z,25.57
2016-11-03T01:49:55.362Z,25.52
2016-11-03T01:50:36.043Z,25.5
2016-11-03T01:51:16.791Z,25.52
2016-11-03T01:51:57.483Z,25.57
2016-11-03T01:52:38.149Z,25.52
2016-11-03T01:53:18.837Z,25.55
2016-11-03T01:53:59.570Z,25.55
2016-11-03T01:54:40.252Z,25.6
2016-11-03T01:55:20.959Z,25.55
2016-11-03T01:56:01.652Z,25.65
2016-11-03T01:56:42.367Z,25.5
2016-11-03T01:57:23.079Z,25.58
2016-11-03T01:58:03.761Z,25.55
2016-11-03T01:58:44.445Z,25.55
2016-11-03T01:59:25.110Z,25.62
2016-11-03T02:00:05.812Z,25.6
2016-11-03T02:00:46.522Z,25.58
2016-11-03T02:01:27.194Z,25.55
2016-11-03T02:02:07.890Z,25.52
2016-11-03T02:02:48.586Z,25.61
2016-11-03T02:03:29.222Z,25.55
2016-11-03T02:04:09.892Z,25.55
2016-11-03T02:04:50.563Z,25.57
2016-11-03T02:05:31.235Z,25.5
2016-11-03T02:06:11.924Z,25.5
2016-11-03T02:06:52.575Z,25.55
2016-11-03T02:07:33.250Z,25.47
2016-11-03T02:08:13.963Z,25.52
2016-11-03T02:08:54.656Z,25.52
2016-11-03T02:09:35.326Z,25.57
2016-11-03T02:10:16.008Z,25.52
2016-11-03T02:10:56.702Z,25.58
2016-11-03T02:11:37.370Z,25.6
2016-11-03T02:12:18.084Z,25.5
2016-11-03T02:12:58.775Z,25.57
2016-11-03T02:13:39.479Z,25.52
2016-11-03T02:14:20.120Z,25.6
2016-11-03T02:15:00.813Z,25.57
2016-11-03T02:15:41.486Z,25.5
2016-11-03T02:16:22.181Z,25.47
2016-11-03T02:17:02.867Z,25.58
2016-11-03T02:17:43.565Z,25.58
2016-11-03T02:18:24.288Z,25.55
2016-11-03T02:19:04.980Z,25.51
2016-11-03T02:19:45.649Z,25.54
2016-11-03T02:20:26.359Z,25.45
2016-11-03T02:21:07.034Z,25.55
2016-11-03T02:21:47.758Z,25.52
2016-11-03T02:22:28.403Z,25.55
2016-11-03T02:23:09.076Z,25.55
2016-11-03T02:23:49.778Z,25.52
2016-11-03T02:24:30.466Z,25.55
2016-11-03T02:25:11.134Z,25.54
2016-11-03T02:25:51.815Z,25.52
2016-11-03T02:26:32.506Z,25.52
2016-11-03T02:27:13.209Z,25.5
2016-11-03T02:27:53.906Z,25.58
2016-11-03T02:28:34.638Z,25.55
2016-11-03T02:29:15.333Z,25.52
2016-11-03T02:29:56.008Z,25.5
2016-11-03T02:30:36.685Z,25.51
2016-11-03T02:31:17.363Z,25.57
2016-11-03T02:31:58.084Z,25.55
2016-11-03T02:32:38.730Z,25.45
2016-11-03T02:33:19.386Z,25.46
2016-11-03T02:34:00.070Z,25.46
2016-11-03T02:34:40.745Z,25.55
2016-11-03T02:35:21.479Z,25.55
2016-11-03T02:36:02.143Z,25.47
2016-11-03T02:36:42.806Z,25.52
2016-11-03T02:37:23.475Z,25.51
2016-11-03T02:38:04.227Z,25.58
2016-11-03T02:38:44.912Z,25.52
2016-11-03T02:39:25.605Z,25.47
2016-11-03T02:40:06.297Z,25.51
2016-11-03T02:40:47.041Z,25.51
2016-11-03T02:41:27.720Z,25.54
2016-11-03T02:42:08.417Z,25.51
2016-11-03T02:42:49.087Z,25.58
2016-11-03T02:43:29.797Z,25.47
2016-11-03T02:44:10.497Z,25.52
2016-11-03T02:44:51.197Z,25.54
2016-11-03T02:45:31.853Z,25.46
2016-11-03T02:46:12.537Z,25.46
2016-11-03T02:46:53.188Z,25.55
2016-11-03T02:47:33.822Z,25.54
2016-11-03T02:48:14.503Z,25.47
2016-11-03T02:48:55.191Z,25.5
2016-11-03T02:49:35.822Z,25.51
2016-11-03T02:50:16.535Z,25.61
2016-11-03T02:50:57.228Z,25.54
2016-11-03T02:51:37.922Z,25.51
2016-11-03T02:52:18.607Z,25.54
2016-11-03T02:52:59.266Z,25.54
2016-11-03T02:53:39.940Z,25.47
2016-11-03T02:54:20.647Z,25.46
2016-11-03T02:55:01.312Z,25.51
2016-11-03T02:55:42.014Z,25.46
2016-11-03T02:56:22.708Z,25.52
2016-11-03T02:57:03.375Z,25.5
2016-11-03T02:57:44.029Z,25.45
2016-11-03T02:58:24.736Z,25.51
2016-11-03T02:59:05.421Z,25.54
2016-11-03T02:59:46.088Z,25.54
2016-11-03T03:00:26.778Z,25.52
2016-11-03T03:01:07.434Z,25.5
2016-11-03T03:01:48.124Z,25.46
2016-11-03T03:02:28.789Z,25.51
2016-11-03T03:03:09.439Z,25.54
2016-11-03T03:03:50.118Z,25.57
2016-11-03T03:04:30.754Z,25.55
2016-11-03T03:05:11.480Z,25.58
2016-11-03T03:05:52.139Z,25.5
2016-11-03T03:06:32.798Z,25.47
2016-11-03T03:07:13.466Z,25.46
2016-11-03T03:07:54.164Z,25.4
2016-11-03T03:08:34.860Z,25.52
2016-11-03T03:09:15.543Z,25.51
2016-11-03T03:09:56.208Z,25.46
2016-11-03T03:10:36.879Z,25.52
2016-11-03T03:11:17.556Z,25.45
2016-11-03T03:11:58.278Z,25.54
2016-11-03T03:12:38.973Z,25.52
2016-11-03T03:13:19.640Z,25.54
2016-11-03T03:14:00.297Z,25.46
2016-11-03T03:14:40.955Z,25.47
2016-11-03T03:15:21.632Z,25.47
2016-11-03T03:16:02.299Z,25.46
2016-11-03T03:16:43.014Z,25.46
2016-11-03T03:17:23.694Z,25.46
2016-11-03T03:18:04.355Z,25.47
2016-11-03T03:18:45.087Z,25.51
2016-11-03T03:19:25.764Z,25.51
2016-11-03T03:20:06.467Z,25.51
2016-11-03T03:20:47.141Z,25.45
2016-11-03T03:21:27.783Z,25.54
2016-11-03T03:22:08.477Z,25.51
2016-11-03T03:22:49.196Z,25.51
2016-11-03T03:23:29.820Z,25.5
2016-11-03T03:24:10.516Z,25.58
2016-11-03T03:24:51.198Z,25.52
2016-11-03T03:25:31.882Z,25.47
2016-11-03T03:26:12.594Z,25.52
2016-11-03T03:26:53.272Z,25.54
2016-11-03T03:27:33.948Z,25.52
2016-11-03T03:28:14.605Z,25.51
2016-11-03T03:28:55.314Z,25.52
2016-11-03T03:29:36.034Z,25.47
2016-11-03T03:30:16.725Z,25.5
2016-11-03T03:30:57.445Z,25.51
2016-11-03T03:31:38.136Z,25.45
2016-11-03T03:32:18.820Z,25.54
2016-11-03T03:32:59.529Z,25.47
2016-11-03T03:33:40.234Z,25.51
2016-11-03T03:34:20.878Z,25.5
2016-11-03T03:35:01.563Z,25.5
2016-11-03T03:35:42.270Z,25.51
2016-11-03T03:36:22.917Z,25.5
2016-11-03T03:37:03.579Z,25.51
2016-11-03T03:37:44.364Z,25.5
2016-11-03T03:38:24.993Z,25.52
2016-11-03T03:39:06.362Z,25.47
2016-11-03T03:39:46.338Z,25.47
2016-11-03T03:40:26.973Z,25.51
2016-11-03T03:41:07.674Z,25.51
2016-11-03T03:41:48.381Z,25.43
2016-11-03T03:42:29.058Z,25.5
2016-11-03T03:43:09.756Z,25.51
2016-11-03T03:43:50.391Z,25.46
2016-11-03T03:44:31.080Z,25.51
2016-11-03T03:45:11.764Z,25.54
2016-11-03T03:45:52.438Z,25.5
2016-11-03T03:46:33.094Z,25.51
2016-11-03T03:47:13.764Z,25.54
2016-11-03T03:47:54.444Z,25.46
2016-11-03T03:48:35.098Z,25.47
2016-11-03T03:49:15.751Z,25.52
2016-11-03T03:49:56.416Z,25.47
2016-11-03T03:50:37.063Z,25.47
2016-11-03T03:51:17.761Z,25.5
2016-11-03T03:51:58.480Z,25.55
2016-11-03T03:52:39.204Z,25.51
2016-11-03T03:53:19.906Z,25.47
2016-11-03T03:54:00.612Z,25.47
2016-11-03T03:54:41.338Z,25.51
2016-11-03T03:55:22.038Z,25.54
2016-11-03T03:56:02.704Z,25.47
2016-11-03T03:56:43.373Z,25.52
2016-11-03T03:57:24.050Z,25.57
2016-11-03T03:58:04.725Z,25.5
2016-11-03T03:58:45.436Z,25.51
2016-11-03T03:59:26.076Z,25.5
2016-11-03T04:00:06.768Z,25.47
2016-11-03T04:00:47.427Z,25.51
2016-11-03T04:01:28.134Z,25.5
2016-11-03T04:02:08.840Z,25.5
2016-11-03T04:02:49.545Z,25.46
2016-11-03T04:03:30.233Z,25.5
2016-11-03T04:04:10.908Z,25.61
2016-11-03T04:04:51.570Z,25.6
2016-11-03T04:05:32.267Z,25.46
2016-11-03T04:06:12.924Z,25.47
2016-11-03T04:06:53.628Z,25.57
2016-11-03T04:07:34.295Z,25.46
2016-11-03T04:08:15.011Z,25.54
2016-11-03T04:08:55.707Z,25.51
2016-11-03T04:09:36.385Z,25.45
2016-11-03T04:10:17.038Z,25.51
2016-11-03T04:10:57.693Z,25.54
2016-11-03T04:11:38.392Z,25.54
2016-11-03T04:12:19.842Z,25.54
2016-11-03T04:13:00.531Z,25.54
2016-11-03T04:13:41.251Z,25.6
2016-11-03T04:14:21.892Z,25.55
2016-11-03T04:15:02.547Z,25.5
2016-11-03T04:15:43.217Z,25.45
2016-11-03T04:16:23.872Z,25.54
2016-11-03T04:17:04.563Z,25.51
2016-11-03T04:17:45.299Z,25.54
2016-11-03T04:18:25.915Z,25.5
2016-11-03T04:19:06.626Z,25.52
2016-11-03T04:19:47.305Z,25.51
2016-11-03T04:20:28.034Z,25.47
2016-11-03T04:21:08.722Z,25.51
2016-11-03T04:21:49.432Z,25.54
2016-11-03T04:22:30.139Z,25.55
2016-11-03T04:23:10.756Z,25.57
2016-11-03T04:23:51.464Z,25.51
2016-11-03T04:24:32.126Z,25.5
2016-11-03T04:25:12.803Z,25.47
2016-11-03T04:25:53.476Z,25.5
2016-11-03T04:26:34.134Z,25.52
2016-11-03T04:27:14.786Z,25.51
2016-11-03T04:27:55.472Z,25.51
2016-11-03T04:28:36.163Z,25.51
2016-11-03T04:29:16.836Z,25.46
2016-11-03T04:29:57.533Z,25.55
2016-11-03T04:30:38.268Z,25.45
2016-11-03T04:31:18.923Z,25.51
2016-11-03T04:31:59.643Z,25.52
2016-11-03T04:32:40.309Z,25.5
2016-11-03T04:33:21.016Z,25.51
2016-11-03T04:34:01.714Z,25.57
2016-11-03T04:34:42.387Z,25.51
2016-11-03T04:35:23.050Z,25.54
2016-11-03T04:36:03.697Z,25.45
2016-11-03T04:36:44.368Z,25.57
2016-11-03T04:37:25.037Z,25.46
2016-11-03T04:38:05.689Z,25.54
2016-11-03T04:38:46.408Z,25.52
2016-11-03T04:39:27.094Z,25.52
2016-11-03T04:40:07.777Z,25.45
2016-11-03T04:40:48.459Z,25.51
2016-11-03T04:41:29.151Z,25.51
2016-11-03T04:42:09.827Z,25.5
2016-11-03T04:42:50.468Z,25.47
2016-11-03T04:43:31.123Z,25.5
2016-11-03T04:44:11.840Z,25.47
2016-11-03T04:44:52.571Z,25.47
2016-11-03T04:45:33.223Z,25.51
2016-11-03T04:46:13.922Z,25.55
2016-11-03T04:46:54.620Z,25.51
2016-11-03T04:47:35.307Z,25.47
2016-11-03T04:48:16.901Z,25.51
2016-11-03T04:48:56.640Z,25.46
2016-11-03T04:49:37.348Z,25.52
2016-11-03T04:50:18.040Z,25.45
2016-11-03T04:50:58.706Z,25.51
2016-11-03T04:51:39.358Z,25.51
2016-11-03T04:52:20.042Z,25.54
2016-11-03T04:53:00.756Z,25.43
2016-11-03T04:53:41.412Z,25.57
2016-11-03T04:54:22.089Z,25.5
2016-11-03T04:55:02.750Z,25.5
2016-11-03T04:55:43.439Z,25.52
2016-11-03T04:56:24.124Z,25.51
2016-11-03T04:57:04.797Z,25.51
2016-11-03T04:57:45.481Z,25.47
2016-11-03T04:58:26.120Z,25.55
2016-11-03T04:59:06.792Z,25.57
2016-11-03T04:59:47.499Z,25.57
2016-11-03T05:00:28.177Z,25.57
2016-11-03T05:01:08.833Z,25.5
2016-11-03T05:01:49.485Z,25.45
2016-11-03T05:02:30.188Z,25.57
2016-11-03T05:03:10.881Z,25.51
2016-11-03T05:03:51.566Z,25.51
2016-11-03T05:04:32.262Z,25.51
2016-11-03T05:05:12.950Z,25.54
2016-11-03T05:05:53.675Z,25.51
2016-11-03T05:06:34.402Z,25.46
2016-11-03T05:07:15.028Z,25.5
2016-11-03T05:07:55.738Z,25.47
2016-11-03T05:08:36.395Z,25.51
2016-11-03T05:09:17.160Z,25.5
2016-11-03T05:09:57.781Z,25.47
2016-11-03T05:10:38.471Z,25.5
2016-11-03T05:11:19.154Z,25.55
2016-11-03T05:11:59.825Z,25.51
2016-11-03T05:12:40.538Z,25.54
2016-11-03T05:13:21.221Z,25.55
2016-11-03T05:14:01.893Z,25.52
2016-11-03T05:14:42.531Z,25.54
2016-11-03T05:15:23.199Z,25.51
2016-11-03T05:16:03.877Z,25.51
2016-11-03T05:16:44.540Z,25.46
2016-11-03T05:17:25.210Z,25.47
2016-11-03T05:18:05.881Z,25.46
2016-11-03T05:18:46.568Z,25.51
2016-11-03T05:19:27.256Z,25.46
2016-11-03T05:20:07.983Z,25.51
2016-11-03T05:20:48.687Z,25.46
2016-11-03T05:21:29.370Z,25.46
2016-11-03T05:22:10.060Z,25.5
2016-11-03T05:22:50.756Z,25.46
2016-11-03T05:23:31.431Z,25.51
2016-11-03T05:24:12.139Z,25.45
2016-11-03T05:24:52.835Z,25.47
2016-11-03T05:25:33.496Z,25.51
2016-11-03T05:26:14.188Z,25.51
2016-11-03T05:26:54.881Z,25.51
2016-11-03T05:27:35.600Z,25.55
2016-11-03T05:28:16.315Z,25.46
2016-11-03T05:28:56.996Z,25.51
2016-11-03T05:29:37.705Z,25.51
2016-11-03T05:30:18.424Z,25.46
2016-11-03T05:30:59.116Z,25.47
2016-11-03T05:31:39.791Z,25.55
2016-11-03T05:32:20.516Z,25.57
2016-11-03T05:33:01.210Z,25.51
2016-11-03T05:33:41.904Z,25.46
2016-11-03T05:34:22.585Z,25.46
2016-11-03T05:35:03.251Z,25.51
2016-11-03T05:35:43.937Z,25.51
2016-11-03T05:36:24.600Z,25.46
2016-11-03T05:37:05.296Z,25.54
2016-11-03T05:37:45.962Z,25.51
2016-11-03T05:38:26.664Z,25.47
2016-11-03T05:39:07.377Z,25.54
2016-11-03T05:39:48.101Z,25.46
2016-11-03T05:40:28.790Z,25.5
2016-11-03T05:41:09.507Z,25.51
2016-11-03T05:41:50.171Z,25.52
2016-11-03T05:42:30.833Z,25.47
2016-11-03T05:43:11.520Z,25.47
2016-11-03T05:43:52.183Z,25.51
2016-11-03T05:44:32.879Z,25.51
2016-11-03T05:45:13.562Z,25.47
2016-11-03T05:45:54.287Z,25.51
2016-11-03T05:46:34.954Z,25.46
2016-11-03T05:47:15.652Z,25.47
2016-11-03T05:47:56.350Z,25.46
2016-11-03T05:48:37.044Z,25.51
2016-11-03T05:49:17.760Z,25.51
2016-11-03T05:49:58.373Z,25.45
2016-11-03T05:50:39.093Z,25.51
2016-11-03T05:51:19.818Z,25.54
2016-11-03T05:52:00.526Z,25.52
2016-11-03T05:52:41.238Z,25.51
2016-11-03T05:53:21.948Z,25.4
2016-11-03T05:54:02.583Z,25.55
2016-11-03T05:54:43.283Z,25.51
2016-11-03T05:55:23.979Z,25.51
2016-11-03T05:56:04.674Z,25.47
2016-11-03T05:56:45.350Z,25.43
2016-11-03T05:57:26.042Z,25.51
2016-11-03T05:58:06.693Z,25.54
2016-11-03T05:58:47.375Z,25.45
2016-11-03T05:59:28.072Z,25.51
2016-11-03T06:00:08.752Z,25.55
2016-11-03T06:00:49.436Z,25.51
2016-11-03T06:01:30.097Z,25.46
2016-11-03T06:02:10.764Z,25.45
2016-11-03T06:02:51.473Z,25.54
2016-11-03T06:03:32.187Z,25.51
2016-11-03T06:04:12.873Z,25.5
2016-11-03T06:04:53.583Z,25.51
2016-11-03T06:05:34.267Z,25.47
2016-11-03T06:06:14.965Z,25.52
2016-11-03T06:06:55.595Z,25.47
2016-11-03T06:07:36.269Z,25.47
2016-11-03T06:08:16.956Z,25.5
2016-11-03T06:08:57.640Z,25.47
2016-11-03T06:09:38.330Z,25.47
2016-11-03T06:10:19.004Z,25.54
2016-11-03T06:10:59.704Z,25.52
2016-11-03T06:11:40.392Z,25.47
2016-11-03T06:12:21.071Z,25.51
2016-11-03T06:13:01.761Z,25.51
2016-11-03T06:13:42.437Z,25.45
2016-11-03T06:14:23.120Z,25.51
2016-11-03T06:15:03.845Z,25.52
2016-11-03T06:15:44.506Z,25.51
2016-11-03T06:16:25.217Z,25.51
2016-11-03T06:17:05.892Z,25.47
2016-11-03T06:17:46.611Z,25.55
2016-11-03T06:18:27.294Z,25.51
2016-11-03T06:19:07.965Z,25.51
2016-11-03T06:19:48.614Z,25.45
2016-11-03T06:20:29.261Z,25.51
2016-11-03T06:21:09.897Z,25.47
2016-11-03T06:21:50.606Z,25.46
2016-11-03T06:22:31.270Z,25.46
2016-11-03T06:23:11.930Z,25.52
2016-11-03T06:23:52.620Z,25.46
2016-11-03T06:24:33.318Z,25.43
2016-11-03T06:25:14.030Z,25.47
2016-11-03T06:25:54.696Z,25.52
2016-11-03T06:26:35.360Z,25.47
2016-11-03T06:27:16.029Z,25.47
2016-11-03T06:27:56.662Z,25.47
2016-11-03T06:28:37.375Z,25.45
2016-11-03T06:29:18.062Z,25.57
2016-11-03T06:29:58.796Z,25.52
2016-11-03T06:30:39.526Z,25.51
2016-11-03T06:31:20.243Z,25.51
2016-11-03T06:32:00.910Z,25.5
2016-11-03T06:32:41.580Z,25.57
2016-11-03T06:33:22.280Z,25.51
2016-11-03T06:34:02.941Z,25.54
2016-11-03T06:34:43.585Z,25.57
2016-11-03T06:35:24.295Z,25.5
2016-11-03T06:36:04.935Z,25.51
2016-11-03T06:36:45.604Z,25.47
2016-11-03T06:37:26.254Z,25.52
2016-11-03T06:38:06.981Z,25.46
2016-11-03T06:38:47.710Z,25.46
2016-11-03T06:39:28.388Z,25.46
2016-11-03T06:40:09.087Z,25.51
2016-11-03T06:40:49.777Z,25.54
2016-11-03T06:41:30.447Z,25.47
2016-11-03T06:42:11.121Z,25.54
2016-11-03T06:42:51.819Z,25.5
2016-11-03T06:43:32.503Z,25.58
2016-11-03T06:44:13.173Z,25.57
2016-11-03T06:44:53.850Z,25.61
2016-11-03T06:45:34.518Z,25.58
2016-11-03T06:46:15.186Z,25.55
2016-11-03T06:46:55.847Z,25.5
2016-11-03T06:47:36.480Z,25.58
2016-11-03T06:48:17.185Z,25.55
2016-11-03T06:48:57.788Z,25.54
2016-11-03T06:49:38.467Z,25.58
2016-11-03T06:50:19.120Z,25.61
2016-11-03T06:50:59.799Z,25.57
2016-11-03T06:51:40.532Z,25.55
2016-11-03T06:52:21.225Z,25.58
2016-11-03T06:53:01.925Z,25.6
2016-11-03T06:53:42.657Z,25.6
2016-11-03T06:54:23.348Z,25.51
2016-11-03T06:55:04.033Z,25.54
2016-11-03T06:55:44.750Z,25.54
2016-11-03T06:56:25.422Z,25.6
2016-11-03T06:57:06.057Z,25.6
2016-11-03T06:57:46.755Z,25.61
2016-11-03T06:58:27.416Z,25.52
2016-11-03T06:59:08.120Z,25.67
2016-11-03T06:59:48.799Z,25.61
2016-11-03T07:00:29.437Z,25.58
2016-11-03T07:01:10.132Z,25.52
2016-11-03T07:01:50.943Z,25.6
2016-11-03T07:02:31.642Z,25.61
2016-11-03T07:03:12.325Z,25.67
2016-11-03T07:03:53.018Z,25.65
2016-11-03T07:04:33.715Z,25.61
2016-11-03T07:05:14.419Z,25.61
2016-11-03T07:05:55.134Z,25.57
2016-11-03T07:06:35.784Z,25.61
2016-11-03T07:07:16.513Z,25.67
2016-11-03T07:07:57.182Z,25.58
2016-11-03T07:08:37.868Z,25.65
2016-11-03T07:09:18.566Z,25.61
2016-11-03T07:09:59.224Z,25.69
2016-11-03T07:10:39.918Z,25.62
2016-11-03T07:11:20.601Z,25.65
2016-11-03T07:12:01.324Z,25.62
2016-11-03T07:12:41.978Z,25.67
2016-11-03T07:13:22.687Z,25.69
2016-11-03T07:14:03.326Z,25.67
2016-11-03T07:14:43.991Z,25.67
2016-11-03T07:15:24.665Z,25.79
2016-11-03T07:16:05.348Z,25.69
2016-11-03T07:16:46.048Z,25.67
2016-11-03T07:17:26.717Z,25.69
2016-11-03T07:18:07.405Z,25.65
2016-11-03T07:18:48.125Z,25.73
2016-11-03T07:19:28.825Z,25.72
2016-11-03T07:20:09.532Z,25.73
2016-11-03T07:20:50.258Z,25.75
2016-11-03T07:21:30.953Z,25.46
2016-11-03T07:22:11.680Z,25.15
2016-11-03T07:22:52.377Z,25.1
2016-11-03T07:23:33.055Z,24.76
2016-11-03T07:24:13.720Z,24.78
2016-11-03T07:24:54.427Z,24.71
2016-11-03T07:25:35.117Z,24.49
2016-11-03T07:26:15.839Z,24.42
2016-11-03T07:26:56.511Z,24.32
2016-11-03T07:27:37.196Z,24.24
2016-11-03T07:28:17.897Z,24.03
2016-11-03T07:28:58.590Z,23.76
2016-11-03T07:29:39.261Z,23.73
2016-11-03T07:30:19.951Z,23.65
2016-11-03T07:31:00.636Z,23.54
2016-11-03T07:31:41.318Z,23.4
2016-11-03T07:32:22.057Z,23.46
2016-11-03T07:33:02.741Z,23.36
2016-11-03T07:33:43.481Z,23.42
2016-11-03T07:34:24.201Z,23.39
2016-11-03T07:35:04.857Z,23.5
2016-11-03T07:35:45.527Z,23.35
2016-11-03T07:36:26.180Z,23.2
2016-11-03T07:37:06.847Z,23.28
2016-11-03T07:37:47.544Z,23.33
2016-11-03T07:38:28.220Z,23.31
2016-11-03T07:39:08.963Z,23.31
2016-11-03T07:39:49.675Z,23.4
2016-11-03T07:40:30.346Z,23.51
2016-11-03T07:41:11.047Z,23.42
2016-11-03T07:41:51.734Z,23.46
2016-11-03T07:42:32.453Z,23.46
2016-11-03T07:43:13.132Z,23.28
2016-11-03T07:43:53.883Z,23.4
2016-11-03T07:44:34.567Z,23.4
2016-11-03T07:45:15.220Z,23.48
2016-11-03T07:45:55.934Z,23.38
2016-11-03T07:46:36.628Z,23.51
2016-11-03T07:47:17.330Z,23.5
2016-11-03T07:47:57.987Z,23.39
2016-11-03T07:48:38.695Z,23.58
2016-11-03T07:49:19.432Z,23.57
2016-11-03T07:50:00.091Z,23.54
2016-11-03T07:50:40.766Z,23.63
2016-11-03T07:51:21.464Z,23.8
2016-11-03T07:52:02.160Z,24.03
2016-11-03T07:52:42.864Z,24.1
2016-11-03T07:53:24.502Z,24.3
2016-11-03T07:54:04.277Z,24.39
2016-11-03T07:54:44.918Z,24.52
2016-11-03T07:55:25.585Z,24.53
2016-11-03T07:56:06.257Z,24.62
2016-11-03T07:56:46.960Z,24.78
2016-11-03T07:57:27.649Z,24.87
2016-11-03T07:58:08.383Z,24.91
2016-11-03T07:58:49.071Z,24.96
2016-11-03T07:59:29.752Z,25.03
2016-11-03T08:00:10.430Z,25.1
2016-11-03T08:00:51.173Z,25.08
2016-11-03T08:01:31.886Z,25.18
2016-11-03T08:02:12.606Z,25.17
2016-11-03T08:02:53.346Z,25.2
2016-11-03T08:03:34.034Z,25.2
2016-11-03T08:04:14.758Z,25.24
2016-11-03T08:04:55.428Z,25.24
2016-11-03T08:05:36.101Z,25.4
2016-11-03T08:06:16.796Z,25.39
2016-11-03T08:06:57.455Z,25.39
2016-11-03T08:07:38.092Z,25.36
2016-11-03T08:08:18.805Z,25.4
2016-11-03T08:08:59.510Z,25.51
2016-11-03T08:09:40.184Z,25.5
2016-11-03T08:10:20.899Z,25.52
2016-11-03T08:11:01.619Z,25.46
2016-11-03T08:11:42.378Z,25.55
2016-11-03T08:12:23.136Z,25.6
2016-11-03T08:13:03.859Z,25.61
2016-11-03T08:13:44.540Z,25.62
2016-11-03T08:14:25.237Z,25.67
2016-11-03T08:15:05.948Z,25.57
2016-11-03T08:15:46.595Z,25.65
2016-11-03T08:16:27.308Z,25.67
2016-11-03T08:17:07.965Z,25.64
2016-11-03T08:17:48.648Z,25.67
2016-11-03T08:18:29.333Z,25.69
2016-11-03T08:19:10.026Z,25.73
2016-11-03T08:19:50.728Z,25.82
2016-11-03T08:20:31.467Z,25.75
2016-11-03T08:21:12.126Z,25.65
2016-11-03T08:21:52.818Z,25.67
2016-11-03T08:22:33.490Z,25.69
2016-11-03T08:23:14.203Z,25.7
2016-11-03T08:23:54.966Z,25.75
2016-11-03T08:24:35.703Z,25.73
2016-11-03T08:25:16.445Z,25.75
2016-11-03T08:25:57.209Z,25.73
2016-11-03T08:26:37.912Z,25.73
2016-11-03T08:27:18.592Z,25.64
2016-11-03T08:27:59.286Z,25.65
2016-11-03T08:28:40.133Z,25.76
2016-11-03T08:29:21.021Z,25.69
2016-11-03T08:30:01.809Z,25.77
2016-11-03T08:30:42.564Z,25.76
2016-11-03T08:31:23.302Z,25.77
2016-11-03T08:32:03.996Z,25.75
2016-11-03T08:32:44.698Z,25.73
2016-11-03T08:33:25.407Z,25.77
2016-11-03T08:34:06.134Z,25.77
2016-11-03T08:34:46.805Z,25.7
2016-11-03T08:35:27.584Z,25.77
2016-11-03T08:36:08.283Z,25.76
2016-11-03T08:36:48.939Z,25.76
2016-11-03T08:37:29.657Z,25.7
2016-11-03T08:38:10.321Z,25.75
2016-11-03T08:38:51.041Z,25.77
2016-11-03T08:39:31.713Z,25.72
2016-11-03T08:40:12.427Z,25.77
2016-11-03T08:40:53.176Z,25.72
2016-11-03T08:41:33.823Z,25.8
2016-11-03T08:42:14.529Z,25.77
2016-11-03T08:42:55.247Z,25.75
2016-11-03T08:43:35.951Z,25.82
2016-11-03T08:44:16.664Z,25.73
2016-11-03T08:44:57.312Z,25.79
2016-11-03T08:45:38.023Z,25.76
2016-11-03T08:46:18.710Z,25.8